sensor_id;sensor_type;location;lat;lon;timestamp;temperature;humidity
19898;DHT22;10111;50.814;4.572;2023-08-07T00:00:27;13.50;99.90
19898;DHT22;10111;50.814;4.572;2023-08-07T00:02:53;13.50;99.90
19898;DHT22;10111;50.814;4.572;2023-08-07T00:05:19;13.50;99.90
19898;DHT22;10111;50.814;4.572;2023-08-07T00:07:44;13.50;99.90
19898;DHT22;10111;50.814;4.572;2023-08-07T00:10:10;13.50;99.90
19898;DHT22;10111;50.814;4.572;2023-08-07T00:12:36;13.40;99.90
19898;DHT22;10111;50.814;4.572;2023-08-07T00:15:02;13.40;99.90
19898;DHT22;10111;50.814;4.572;2023-08-07T00:17:28;13.50;99.90
19898;DHT22;10111;50.814;4.572;2023-08-07T00:19:54;13.60;99.90
19898;DHT22;10111;50.814;4.572;2023-08-07T00:22:20;13.60;99.90
19898;DHT22;10111;50.814;4.572;2023-08-07T00:24:46;13.60;99.90
19898;DHT22;10111;50.814;4.572;2023-08-07T00:27:11;13.60;99.90
19898;DHT22;10111;50.814;4.572;2023-08-07T00:29:38;13.70;99.90
19898;DHT22;10111;50.814;4.572;2023-08-07T00:32:04;13.70;99.90
19898;DHT22;10111;50.814;4.572;2023-08-07T00:34:30;13.60;99.90
19898;DHT22;10111;50.814;4.572;2023-08-07T00:36:56;13.60;99.90
19898;DHT22;10111;50.814;4.572;2023-08-07T00:39:21;13.60;99.90
19898;DHT22;10111;50.814;4.572;2023-08-07T00:41:47;13.60;99.90
19898;DHT22;10111;50.814;4.572;2023-08-07T00:44:13;13.50;99.90
19898;DHT22;10111;50.814;4.572;2023-08-07T00:46:39;13.50;99.90
19898;DHT22;10111;50.814;4.572;2023-08-07T00:49:05;13.40;99.90
19898;DHT22;10111;50.814;4.572;2023-08-07T00:51:31;13.40;99.90
19898;DHT22;10111;50.814;4.572;2023-08-07T00:53:58;13.40;99.90
19898;DHT22;10111;50.814;4.572;2023-08-07T00:56:24;13.40;99.90
19898;DHT22;10111;50.814;4.572;2023-08-07T00:58:51;13.40;99.90
19898;DHT22;10111;50.814;4.572;2023-08-07T01:01:17;13.40;99.90
19898;DHT22;10111;50.814;4.572;2023-08-07T01:03:42;13.40;99.90
19898;DHT22;10111;50.814;4.572;2023-08-07T01:06:08;13.40;99.90
19898;DHT22;10111;50.814;4.572;2023-08-07T01:08:34;13.30;99.90
19898;DHT22;10111;50.814;4.572;2023-08-07T01:16:45;13.30;99.90
19898;DHT22;10111;50.814;4.572;2023-08-07T01:19:23;13.20;99.90
19898;DHT22;10111;50.814;4.572;2023-08-07T01:22:16;13.30;99.90
19898;DHT22;10111;50.814;4.572;2023-08-07T01:24:44;13.30;99.90
19898;DHT22;10111;50.814;4.572;2023-08-07T01:27:24;13.20;99.90
19898;DHT22;10111;50.814;4.572;2023-08-07T01:35:14;13.10;99.90
19898;DHT22;10111;50.814;4.572;2023-08-07T01:37:42;13.10;99.90
19898;DHT22;10111;50.814;4.572;2023-08-07T01:40:10;13.00;99.90
19898;DHT22;10111;50.814;4.572;2023-08-07T01:42:36;13.10;99.90
19898;DHT22;10111;50.814;4.572;2023-08-07T01:45:04;13.00;99.90
19898;DHT22;10111;50.814;4.572;2023-08-07T01:47:30;13.00;99.90
19898;DHT22;10111;50.814;4.572;2023-08-07T01:49:56;13.00;99.90
19898;DHT22;10111;50.814;4.572;2023-08-07T01:52:21;13.00;99.90
19898;DHT22;10111;50.814;4.572;2023-08-07T01:54:47;13.00;99.90
19898;DHT22;10111;50.814;4.572;2023-08-07T01:57:13;12.90;99.90
19898;DHT22;10111;50.814;4.572;2023-08-07T01:59:39;12.90;99.90
19898;DHT22;10111;50.814;4.572;2023-08-07T02:02:05;12.90;99.90
19898;DHT22;10111;50.814;4.572;2023-08-07T02:04:30;12.80;99.90
19898;DHT22;10111;50.814;4.572;2023-08-07T02:06:56;12.90;99.90
19898;DHT22;10111;50.814;4.572;2023-08-07T02:09:22;12.80;99.90
19898;DHT22;10111;50.814;4.572;2023-08-07T02:11:48;12.80;99.90
19898;DHT22;10111;50.814;4.572;2023-08-07T02:14:13;12.70;99.90
19898;DHT22;10111;50.814;4.572;2023-08-07T02:16:39;12.80;99.90
19898;DHT22;10111;50.814;4.572;2023-08-07T02:19:04;12.70;99.90
19898;DHT22;10111;50.814;4.572;2023-08-07T02:21:32;12.70;99.90
19898;DHT22;10111;50.814;4.572;2023-08-07T02:23:57;12.70;99.90
19898;DHT22;10111;50.814;4.572;2023-08-07T02:26:23;12.70;99.90
19898;DHT22;10111;50.814;4.572;2023-08-07T02:28:49;12.80;99.90
19898;DHT22;10111;50.814;4.572;2023-08-07T02:31:14;12.80;99.90
19898;DHT22;10111;50.814;4.572;2023-08-07T02:33:40;12.80;99.90
19898;DHT22;10111;50.814;4.572;2023-08-07T02:36:07;12.70;99.90
19898;DHT22;10111;50.814;4.572;2023-08-07T02:38:32;12.60;99.90
19898;DHT22;10111;50.814;4.572;2023-08-07T02:40:58;12.70;99.90
19898;DHT22;10111;50.814;4.572;2023-08-07T02:43:24;12.70;99.90
19898;DHT22;10111;50.814;4.572;2023-08-07T02:45:49;12.60;99.90
19898;DHT22;10111;50.814;4.572;2023-08-07T02:48:15;12.60;99.90
19898;DHT22;10111;50.814;4.572;2023-08-07T02:50:42;12.60;99.90
19898;DHT22;10111;50.814;4.572;2023-08-07T02:53:09;12.60;99.90
19898;DHT22;10111;50.814;4.572;2023-08-07T02:55:35;12.60;99.90
19898;DHT22;10111;50.814;4.572;2023-08-07T02:58:00;12.60;99.90
19898;DHT22;10111;50.814;4.572;2023-08-07T03:00:26;12.60;99.90
19898;DHT22;10111;50.814;4.572;2023-08-07T03:02:51;12.60;99.90
19898;DHT22;10111;50.814;4.572;2023-08-07T03:05:17;12.70;99.90
19898;DHT22;10111;50.814;4.572;2023-08-07T03:07:43;12.60;99.90
19898;DHT22;10111;50.814;4.572;2023-08-07T03:10:08;12.60;99.90
19898;DHT22;10111;50.814;4.572;2023-08-07T03:12:34;12.60;99.90
19898;DHT22;10111;50.814;4.572;2023-08-07T03:15:00;12.60;99.90
19898;DHT22;10111;50.814;4.572;2023-08-07T03:17:25;12.60;99.90
19898;DHT22;10111;50.814;4.572;2023-08-07T03:19:51;12.60;99.90
19898;DHT22;10111;50.814;4.572;2023-08-07T03:22:17;12.60;99.90
19898;DHT22;10111;50.814;4.572;2023-08-07T03:24:47;12.50;99.90
19898;DHT22;10111;50.814;4.572;2023-08-07T03:27:13;12.50;99.90
19898;DHT22;10111;50.814;4.572;2023-08-07T03:29:39;12.50;99.90
19898;DHT22;10111;50.814;4.572;2023-08-07T03:32:05;12.60;99.90
19898;DHT22;10111;50.814;4.572;2023-08-07T03:34:30;12.50;99.90
19898;DHT22;10111;50.814;4.572;2023-08-07T03:36:56;12.50;99.90
19898;DHT22;10111;50.814;4.572;2023-08-07T03:39:21;12.60;99.90
19898;DHT22;10111;50.814;4.572;2023-08-07T03:41:48;12.60;99.90
19898;DHT22;10111;50.814;4.572;2023-08-07T03:44:14;12.50;99.90
19898;DHT22;10111;50.814;4.572;2023-08-07T03:46:40;12.50;99.90
19898;DHT22;10111;50.814;4.572;2023-08-07T03:49:06;12.50;99.90
19898;DHT22;10111;50.814;4.572;2023-08-07T03:51:31;12.50;99.90
19898;DHT22;10111;50.814;4.572;2023-08-07T03:53:57;12.50;99.90
19898;DHT22;10111;50.814;4.572;2023-08-07T03:56:23;12.50;99.90
19898;DHT22;10111;50.814;4.572;2023-08-07T03:58:49;12.50;99.90
19898;DHT22;10111;50.814;4.572;2023-08-07T04:01:15;12.50;99.90
19898;DHT22;10111;50.814;4.572;2023-08-07T04:03:41;12.50;99.90
19898;DHT22;10111;50.814;4.572;2023-08-07T04:06:07;12.60;99.90
19898;DHT22;10111;50.814;4.572;2023-08-07T04:08:33;12.70;99.90
19898;DHT22;10111;50.814;4.572;2023-08-07T04:11:02;12.80;99.90
19898;DHT22;10111;50.814;4.572;2023-08-07T04:13:28;12.80;99.90
19898;DHT22;10111;50.814;4.572;2023-08-07T04:15:54;12.80;99.90
19898;DHT22;10111;50.814;4.572;2023-08-07T04:18:20;12.90;99.90
19898;DHT22;10111;50.814;4.572;2023-08-07T04:20:55;12.80;99.90
19898;DHT22;10111;50.814;4.572;2023-08-07T04:23:22;12.80;99.90
19898;DHT22;10111;50.814;4.572;2023-08-07T04:25:48;12.80;99.90
19898;DHT22;10111;50.814;4.572;2023-08-07T04:28:14;12.80;99.90
19898;DHT22;10111;50.814;4.572;2023-08-07T04:30:40;12.80;99.90
19898;DHT22;10111;50.814;4.572;2023-08-07T04:33:07;12.80;99.90
19898;DHT22;10111;50.814;4.572;2023-08-07T04:35:32;12.80;99.90
19898;DHT22;10111;50.814;4.572;2023-08-07T04:37:58;12.70;99.90
19898;DHT22;10111;50.814;4.572;2023-08-07T04:40:24;12.70;99.90
19898;DHT22;10111;50.814;4.572;2023-08-07T04:42:49;12.70;99.90
19898;DHT22;10111;50.814;4.572;2023-08-07T04:45:15;12.70;99.90
19898;DHT22;10111;50.814;4.572;2023-08-07T04:47:41;12.70;99.90
19898;DHT22;10111;50.814;4.572;2023-08-07T04:50:07;12.70;99.90
19898;DHT22;10111;50.814;4.572;2023-08-07T04:52:34;12.80;99.90
19898;DHT22;10111;50.814;4.572;2023-08-07T04:54:59;12.80;99.90
19898;DHT22;10111;50.814;4.572;2023-08-07T04:57:25;12.90;99.90
19898;DHT22;10111;50.814;4.572;2023-08-07T04:59:51;12.90;99.90
19898;DHT22;10111;50.814;4.572;2023-08-07T05:02:17;12.90;99.90
19898;DHT22;10111;50.814;4.572;2023-08-07T05:04:43;12.90;99.90
19898;DHT22;10111;50.814;4.572;2023-08-07T05:07:08;12.90;99.90
19898;DHT22;10111;50.814;4.572;2023-08-07T05:09:35;12.90;99.90
19898;DHT22;10111;50.814;4.572;2023-08-07T05:12:01;12.90;99.90
19898;DHT22;10111;50.814;4.572;2023-08-07T05:14:27;12.90;99.90
19898;DHT22;10111;50.814;4.572;2023-08-07T05:16:52;12.90;99.90
19898;DHT22;10111;50.814;4.572;2023-08-07T05:19:18;12.90;99.90
19898;DHT22;10111;50.814;4.572;2023-08-07T05:21:44;13.00;99.90
19898;DHT22;10111;50.814;4.572;2023-08-07T05:24:09;13.10;99.90
19898;DHT22;10111;50.814;4.572;2023-08-07T05:26:35;13.20;99.90
19898;DHT22;10111;50.814;4.572;2023-08-07T05:29:01;13.30;99.90
19898;DHT22;10111;50.814;4.572;2023-08-07T05:31:26;13.50;99.90
19898;DHT22;10111;50.814;4.572;2023-08-07T05:33:52;13.60;99.90
19898;DHT22;10111;50.814;4.572;2023-08-07T05:36:17;13.70;99.90
19898;DHT22;10111;50.814;4.572;2023-08-07T05:38:43;13.80;99.90
19898;DHT22;10111;50.814;4.572;2023-08-07T05:41:09;14.00;99.90
19898;DHT22;10111;50.814;4.572;2023-08-07T05:43:35;14.20;99.90
19898;DHT22;10111;50.814;4.572;2023-08-07T05:46:01;14.30;99.90
19898;DHT22;10111;50.814;4.572;2023-08-07T05:48:26;14.50;99.90
19898;DHT22;10111;50.814;4.572;2023-08-07T05:50:52;14.60;99.90
19898;DHT22;10111;50.814;4.572;2023-08-07T05:53:19;14.70;99.90
19898;DHT22;10111;50.814;4.572;2023-08-07T05:55:44;14.80;99.90
19898;DHT22;10111;50.814;4.572;2023-08-07T05:58:10;14.90;99.90
19898;DHT22;10111;50.814;4.572;2023-08-07T06:00:36;15.10;99.90
19898;DHT22;10111;50.814;4.572;2023-08-07T06:03:02;15.20;99.90
19898;DHT22;10111;50.814;4.572;2023-08-07T06:05:28;15.30;99.90
19898;DHT22;10111;50.814;4.572;2023-08-07T06:07:54;15.40;99.90
19898;DHT22;10111;50.814;4.572;2023-08-07T06:10:19;15.50;99.90
19898;DHT22;10111;50.814;4.572;2023-08-07T06:12:45;15.60;99.90
19898;DHT22;10111;50.814;4.572;2023-08-07T06:15:11;15.70;99.90
19898;DHT22;10111;50.814;4.572;2023-08-07T06:17:36;15.80;99.90
19898;DHT22;10111;50.814;4.572;2023-08-07T06:20:06;15.90;99.90
19898;DHT22;10111;50.814;4.572;2023-08-07T06:22:32;16.00;99.90
19898;DHT22;10111;50.814;4.572;2023-08-07T06:24:58;16.10;99.90
19898;DHT22;10111;50.814;4.572;2023-08-07T06:27:23;16.20;99.90
19898;DHT22;10111;50.814;4.572;2023-08-07T06:29:49;16.40;99.90
19898;DHT22;10111;50.814;4.572;2023-08-07T06:32:15;16.60;99.90
19898;DHT22;10111;50.814;4.572;2023-08-07T06:34:43;16.70;99.90
19898;DHT22;10111;50.814;4.572;2023-08-07T06:37:08;16.80;99.90
19898;DHT22;10111;50.814;4.572;2023-08-07T06:39:34;16.90;99.90
19898;DHT22;10111;50.814;4.572;2023-08-07T06:42:00;17.00;99.90
19898;DHT22;10111;50.814;4.572;2023-08-07T06:44:26;17.10;99.90
19898;DHT22;10111;50.814;4.572;2023-08-07T06:46:52;17.20;99.90
19898;DHT22;10111;50.814;4.572;2023-08-07T06:49:17;17.40;99.90
19898;DHT22;10111;50.814;4.572;2023-08-07T06:51:43;17.40;99.90
19898;DHT22;10111;50.814;4.572;2023-08-07T06:54:09;17.50;99.90
19898;DHT22;10111;50.814;4.572;2023-08-07T06:56:34;17.60;99.90
19898;DHT22;10111;50.814;4.572;2023-08-07T06:59:00;17.60;99.90
19898;DHT22;10111;50.814;4.572;2023-08-07T07:01:26;17.70;99.90
19898;DHT22;10111;50.814;4.572;2023-08-07T07:03:51;17.80;99.90
19898;DHT22;10111;50.814;4.572;2023-08-07T07:06:18;17.90;99.90
19898;DHT22;10111;50.814;4.572;2023-08-07T07:08:45;18.00;99.90
19898;DHT22;10111;50.814;4.572;2023-08-07T07:11:11;18.10;99.90
19898;DHT22;10111;50.814;4.572;2023-08-07T07:13:37;18.20;99.90
19898;DHT22;10111;50.814;4.572;2023-08-07T07:16:03;18.30;99.90
19898;DHT22;10111;50.814;4.572;2023-08-07T07:18:29;18.30;99.90
19898;DHT22;10111;50.814;4.572;2023-08-07T07:20:58;18.40;99.90
19898;DHT22;10111;50.814;4.572;2023-08-07T07:23:24;18.60;99.90
19898;DHT22;10111;50.814;4.572;2023-08-07T07:25:50;18.80;99.90
19898;DHT22;10111;50.814;4.572;2023-08-07T07:28:15;18.90;99.90
19898;DHT22;10111;50.814;4.572;2023-08-07T07:30:41;18.90;99.90
19898;DHT22;10111;50.814;4.572;2023-08-07T07:33:07;19.00;99.90
19898;DHT22;10111;50.814;4.572;2023-08-07T07:35:36;19.20;99.90
19898;DHT22;10111;50.814;4.572;2023-08-07T07:38:02;19.20;99.90
19898;DHT22;10111;50.814;4.572;2023-08-07T07:40:28;19.20;99.90
19898;DHT22;10111;50.814;4.572;2023-08-07T07:42:53;19.10;99.90
19898;DHT22;10111;50.814;4.572;2023-08-07T07:45:19;19.20;99.90
19898;DHT22;10111;50.814;4.572;2023-08-07T07:47:44;19.30;99.90
19898;DHT22;10111;50.814;4.572;2023-08-07T07:50:11;19.30;99.90
19898;DHT22;10111;50.814;4.572;2023-08-07T07:52:38;19.40;99.90
19898;DHT22;10111;50.814;4.572;2023-08-07T07:55:04;19.30;99.90
19898;DHT22;10111;50.814;4.572;2023-08-07T07:57:30;19.50;99.90
19898;DHT22;10111;50.814;4.572;2023-08-07T07:59:56;19.80;99.90
19898;DHT22;10111;50.814;4.572;2023-08-07T08:02:22;19.70;99.90
19898;DHT22;10111;50.814;4.572;2023-08-07T08:04:51;19.60;99.90
19898;DHT22;10111;50.814;4.572;2023-08-07T08:07:17;19.40;99.90
19898;DHT22;10111;50.814;4.572;2023-08-07T08:09:43;19.30;99.90
19898;DHT22;10111;50.814;4.572;2023-08-07T08:12:10;19.00;99.90
19898;DHT22;10111;50.814;4.572;2023-08-07T08:14:36;19.10;99.90
19898;DHT22;10111;50.814;4.572;2023-08-07T08:17:01;19.10;99.90
19898;DHT22;10111;50.814;4.572;2023-08-07T08:19:27;19.20;99.90
19898;DHT22;10111;50.814;4.572;2023-08-07T08:21:52;19.50;99.90
19898;DHT22;10111;50.814;4.572;2023-08-07T08:24:19;19.50;99.90
19898;DHT22;10111;50.814;4.572;2023-08-07T08:26:44;19.80;99.90
19898;DHT22;10111;50.814;4.572;2023-08-07T08:29:14;19.80;99.90
19898;DHT22;10111;50.814;4.572;2023-08-07T08:31:40;19.60;99.90
19898;DHT22;10111;50.814;4.572;2023-08-07T08:34:05;19.40;99.90
19898;DHT22;10111;50.814;4.572;2023-08-07T08:36:31;19.40;99.90
19898;DHT22;10111;50.814;4.572;2023-08-07T08:38:57;19.40;99.90
19898;DHT22;10111;50.814;4.572;2023-08-07T08:41:23;19.60;99.90
19898;DHT22;10111;50.814;4.572;2023-08-07T08:43:51;19.60;99.90
19898;DHT22;10111;50.814;4.572;2023-08-07T08:46:20;19.80;99.90
19898;DHT22;10111;50.814;4.572;2023-08-07T08:48:56;19.80;99.90
19898;DHT22;10111;50.814;4.572;2023-08-07T08:51:22;19.80;99.90
19898;DHT22;10111;50.814;4.572;2023-08-07T08:53:53;19.80;99.90
19898;DHT22;10111;50.814;4.572;2023-08-07T08:56:22;20.00;99.90
19898;DHT22;10111;50.814;4.572;2023-08-07T08:58:50;20.10;99.90
19898;DHT22;10111;50.814;4.572;2023-08-07T09:01:17;20.40;99.90
19898;DHT22;10111;50.814;4.572;2023-08-07T09:03:44;20.60;99.90
19898;DHT22;10111;50.814;4.572;2023-08-07T09:06:11;20.70;99.90
19898;DHT22;10111;50.814;4.572;2023-08-07T09:08:42;20.40;99.90
19898;DHT22;10111;50.814;4.572;2023-08-07T09:11:10;20.20;99.90
19898;DHT22;10111;50.814;4.572;2023-08-07T09:13:40;20.10;99.90
19898;DHT22;10111;50.814;4.572;2023-08-07T09:16:08;20.00;99.90
19898;DHT22;10111;50.814;4.572;2023-08-07T09:18:34;20.20;99.90
19898;DHT22;10111;50.814;4.572;2023-08-07T09:21:00;20.30;99.90
19898;DHT22;10111;50.814;4.572;2023-08-07T09:23:26;20.40;99.90
19898;DHT22;10111;50.814;4.572;2023-08-07T09:26:05;20.80;99.90
19898;DHT22;10111;50.814;4.572;2023-08-07T09:28:32;21.00;99.90
19898;DHT22;10111;50.814;4.572;2023-08-07T09:30:58;21.30;99.90
19898;DHT22;10111;50.814;4.572;2023-08-07T09:33:25;21.20;99.90
19898;DHT22;10111;50.814;4.572;2023-08-07T09:35:52;20.90;99.90
19898;DHT22;10111;50.814;4.572;2023-08-07T09:38:18;20.90;99.90
19898;DHT22;10111;50.814;4.572;2023-08-07T09:40:43;20.60;99.90
19898;DHT22;10111;50.814;4.572;2023-08-07T09:43:09;20.40;99.90
19898;DHT22;10111;50.814;4.572;2023-08-07T09:45:40;20.20;99.90
19898;DHT22;10111;50.814;4.572;2023-08-07T09:48:06;20.00;99.90
19898;DHT22;10111;50.814;4.572;2023-08-07T09:50:36;20.10;99.90
19898;DHT22;10111;50.814;4.572;2023-08-07T09:53:02;20.10;99.90
19898;DHT22;10111;50.814;4.572;2023-08-07T09:55:28;20.10;99.90
19898;DHT22;10111;50.814;4.572;2023-08-07T09:57:54;20.30;99.90
19898;DHT22;10111;50.814;4.572;2023-08-07T10:00:20;20.40;99.90
19898;DHT22;10111;50.814;4.572;2023-08-07T10:02:47;20.40;99.90
19898;DHT22;10111;50.814;4.572;2023-08-07T10:05:14;20.30;99.90
19898;DHT22;10111;50.814;4.572;2023-08-07T10:07:41;20.30;99.90
19898;DHT22;10111;50.814;4.572;2023-08-07T10:10:07;20.50;99.90
19898;DHT22;10111;50.814;4.572;2023-08-07T10:12:34;20.40;99.90
19898;DHT22;10111;50.814;4.572;2023-08-07T10:15:00;20.50;99.90
19898;DHT22;10111;50.814;4.572;2023-08-07T10:17:26;20.50;99.90
19898;DHT22;10111;50.814;4.572;2023-08-07T10:19:52;20.50;99.90
19898;DHT22;10111;50.814;4.572;2023-08-07T10:22:23;20.70;99.90
19898;DHT22;10111;50.814;4.572;2023-08-07T10:24:50;20.90;99.90
19898;DHT22;10111;50.814;4.572;2023-08-07T10:27:20;21.00;99.90
19898;DHT22;10111;50.814;4.572;2023-08-07T10:29:48;21.10;99.90
19898;DHT22;10111;50.814;4.572;2023-08-07T10:32:16;21.10;99.90
19898;DHT22;10111;50.814;4.572;2023-08-07T10:34:47;21.10;99.90
19898;DHT22;10111;50.814;4.572;2023-08-07T10:37:39;20.90;99.90
19898;DHT22;10111;50.814;4.572;2023-08-07T10:40:06;21.00;99.90
19898;DHT22;10111;50.814;4.572;2023-08-07T10:43:11;21.10;99.90
19898;DHT22;10111;50.814;4.572;2023-08-07T10:45:37;21.00;99.90
19898;DHT22;10111;50.814;4.572;2023-08-07T10:48:07;20.90;99.90
19898;DHT22;10111;50.814;4.572;2023-08-07T10:50:48;21.10;99.90
19898;DHT22;10111;50.814;4.572;2023-08-07T10:53:31;21.10;99.90
19898;DHT22;10111;50.814;4.572;2023-08-07T10:56:05;21.30;99.90
19898;DHT22;10111;50.814;4.572;2023-08-07T10:58:36;21.40;99.90
19898;DHT22;10111;50.814;4.572;2023-08-07T11:03:54;21.30;99.90
19898;DHT22;10111;50.814;4.572;2023-08-07T11:06:25;21.30;99.90
19898;DHT22;10111;50.814;4.572;2023-08-07T11:08:52;21.20;99.90
19898;DHT22;10111;50.814;4.572;2023-08-07T11:11:18;21.20;99.90
19898;DHT22;10111;50.814;4.572;2023-08-07T11:13:44;21.20;99.90
19898;DHT22;10111;50.814;4.572;2023-08-07T11:16:11;21.30;99.90
19898;DHT22;10111;50.814;4.572;2023-08-07T11:18:38;21.00;99.90
19898;DHT22;10111;50.814;4.572;2023-08-07T11:21:07;20.90;99.90
19898;DHT22;10111;50.814;4.572;2023-08-07T11:23:33;20.80;99.90
19898;DHT22;10111;50.814;4.572;2023-08-07T11:26:01;20.80;99.90
19898;DHT22;10111;50.814;4.572;2023-08-07T11:28:28;20.80;99.90
19898;DHT22;10111;50.814;4.572;2023-08-07T11:30:54;20.90;99.90
19898;DHT22;10111;50.814;4.572;2023-08-07T11:33:25;21.00;99.90
19898;DHT22;10111;50.814;4.572;2023-08-07T11:35:52;21.20;99.90
19898;DHT22;10111;50.814;4.572;2023-08-07T11:38:31;21.30;99.90
19898;DHT22;10111;50.814;4.572;2023-08-07T11:40:59;21.50;99.90
19898;DHT22;10111;50.814;4.572;2023-08-07T11:43:27;21.90;99.90
19898;DHT22;10111;50.814;4.572;2023-08-07T11:45:54;22.20;99.90
19898;DHT22;10111;50.814;4.572;2023-08-07T11:48:23;22.20;99.90
19898;DHT22;10111;50.814;4.572;2023-08-07T11:50:49;22.10;99.90
19898;DHT22;10111;50.814;4.572;2023-08-07T11:53:15;22.20;99.90
19898;DHT22;10111;50.814;4.572;2023-08-07T11:56:01;22.20;99.90
19898;DHT22;10111;50.814;4.572;2023-08-07T11:58:33;22.00;99.90
19898;DHT22;10111;50.814;4.572;2023-08-07T12:00:59;22.10;99.90
19898;DHT22;10111;50.814;4.572;2023-08-07T12:03:33;22.10;99.90
19898;DHT22;10111;50.814;4.572;2023-08-07T12:06:03;22.20;99.90
19898;DHT22;10111;50.814;4.572;2023-08-07T12:08:40;22.40;99.90
19898;DHT22;10111;50.814;4.572;2023-08-07T12:11:15;22.40;99.90
19898;DHT22;10111;50.814;4.572;2023-08-07T12:13:43;22.50;99.90
19898;DHT22;10111;50.814;4.572;2023-08-07T12:16:10;22.40;99.90
19898;DHT22;10111;50.814;4.572;2023-08-07T12:18:49;22.40;99.90
19898;DHT22;10111;50.814;4.572;2023-08-07T12:21:17;22.20;99.90
19898;DHT22;10111;50.814;4.572;2023-08-07T12:23:48;22.10;99.90
19898;DHT22;10111;50.814;4.572;2023-08-07T12:26:14;22.10;99.90
19898;DHT22;10111;50.814;4.572;2023-08-07T12:28:40;22.10;99.90
19898;DHT22;10111;50.814;4.572;2023-08-07T12:31:06;22.20;99.90
19898;DHT22;10111;50.814;4.572;2023-08-07T12:33:32;22.20;99.90
19898;DHT22;10111;50.814;4.572;2023-08-07T12:35:59;22.30;99.90
19898;DHT22;10111;50.814;4.572;2023-08-07T12:38:25;22.20;99.90
19898;DHT22;10111;50.814;4.572;2023-08-07T12:40:51;22.10;99.90
19898;DHT22;10111;50.814;4.572;2023-08-07T12:43:17;22.00;99.90
19898;DHT22;10111;50.814;4.572;2023-08-07T12:45:43;21.80;99.90
19898;DHT22;10111;50.814;4.572;2023-08-07T12:48:09;21.80;99.90
19898;DHT22;10111;50.814;4.572;2023-08-07T12:50:34;21.70;99.90
19898;DHT22;10111;50.814;4.572;2023-08-07T12:53:00;21.80;99.90
19898;DHT22;10111;50.814;4.572;2023-08-07T12:55:27;21.70;99.90
19898;DHT22;10111;50.814;4.572;2023-08-07T12:57:53;21.60;99.90
19898;DHT22;10111;50.814;4.572;2023-08-07T13:00:20;21.50;99.90
19898;DHT22;10111;50.814;4.572;2023-08-07T13:02:46;21.40;99.90
19898;DHT22;10111;50.814;4.572;2023-08-07T13:05:13;21.60;99.90
19898;DHT22;10111;50.814;4.572;2023-08-07T13:07:40;21.60;99.90
19898;DHT22;10111;50.814;4.572;2023-08-07T13:10:08;21.50;99.90
19898;DHT22;10111;50.814;4.572;2023-08-07T13:12:39;21.10;99.90
19898;DHT22;10111;50.814;4.572;2023-08-07T13:15:06;20.80;99.90
19898;DHT22;10111;50.814;4.572;2023-08-07T13:17:34;20.60;99.90
19898;DHT22;10111;50.814;4.572;2023-08-07T13:20:01;20.50;99.90
19898;DHT22;10111;50.814;4.572;2023-08-07T13:22:28;20.40;99.90
19898;DHT22;10111;50.814;4.572;2023-08-07T13:24:54;20.60;99.90
19898;DHT22;10111;50.814;4.572;2023-08-07T13:27:20;20.80;99.90
19898;DHT22;10111;50.814;4.572;2023-08-07T13:29:46;21.10;99.90
19898;DHT22;10111;50.814;4.572;2023-08-07T13:32:12;21.40;99.90
19898;DHT22;10111;50.814;4.572;2023-08-07T13:34:38;21.90;99.90
19898;DHT22;10111;50.814;4.572;2023-08-07T13:37:05;22.10;99.90
19898;DHT22;10111;50.814;4.572;2023-08-07T13:39:31;22.00;99.90
19898;DHT22;10111;50.814;4.572;2023-08-07T13:41:57;22.00;99.90
19898;DHT22;10111;50.814;4.572;2023-08-07T13:44:23;21.80;99.90
19898;DHT22;10111;50.814;4.572;2023-08-07T13:46:49;21.70;99.90
19898;DHT22;10111;50.814;4.572;2023-08-07T13:49:15;21.70;99.90
19898;DHT22;10111;50.814;4.572;2023-08-07T13:51:41;21.90;99.90
19898;DHT22;10111;50.814;4.572;2023-08-07T13:54:06;22.00;99.90
19898;DHT22;10111;50.814;4.572;2023-08-07T13:56:33;22.20;99.90
19898;DHT22;10111;50.814;4.572;2023-08-07T13:58:59;22.20;99.90
19898;DHT22;10111;50.814;4.572;2023-08-07T14:01:25;22.20;99.90
19898;DHT22;10111;50.814;4.572;2023-08-07T14:03:51;22.10;99.90
19898;DHT22;10111;50.814;4.572;2023-08-07T14:06:17;22.10;99.90
19898;DHT22;10111;50.814;4.572;2023-08-07T14:08:42;22.20;99.90
19898;DHT22;10111;50.814;4.572;2023-08-07T14:11:08;22.20;99.90
19898;DHT22;10111;50.814;4.572;2023-08-07T14:13:33;22.30;99.90
19898;DHT22;10111;50.814;4.572;2023-08-07T14:15:59;22.40;99.90
19898;DHT22;10111;50.814;4.572;2023-08-07T14:18:25;22.60;99.90
19898;DHT22;10111;50.814;4.572;2023-08-07T14:20:50;22.70;99.90
19898;DHT22;10111;50.814;4.572;2023-08-07T14:23:16;22.70;99.90
19898;DHT22;10111;50.814;4.572;2023-08-07T14:25:42;22.60;99.90
19898;DHT22;10111;50.814;4.572;2023-08-07T14:28:08;22.70;99.90
19898;DHT22;10111;50.814;4.572;2023-08-07T14:30:34;22.40;99.90
19898;DHT22;10111;50.814;4.572;2023-08-07T14:32:59;22.30;99.90
19898;DHT22;10111;50.814;4.572;2023-08-07T14:35:25;22.40;99.90
19898;DHT22;10111;50.814;4.572;2023-08-07T14:37:50;22.20;99.90
19898;DHT22;10111;50.814;4.572;2023-08-07T14:40:16;22.00;99.90
19898;DHT22;10111;50.814;4.572;2023-08-07T14:42:42;21.80;99.90
19898;DHT22;10111;50.814;4.572;2023-08-07T14:45:08;21.80;99.90
19898;DHT22;10111;50.814;4.572;2023-08-07T14:47:34;21.90;99.90
19898;DHT22;10111;50.814;4.572;2023-08-07T14:49:59;21.80;99.90
19898;DHT22;10111;50.814;4.572;2023-08-07T14:52:25;21.70;99.90
19898;DHT22;10111;50.814;4.572;2023-08-07T14:54:50;21.60;99.90
19898;DHT22;10111;50.814;4.572;2023-08-07T14:57:18;21.50;99.90
19898;DHT22;10111;50.814;4.572;2023-08-07T14:59:44;21.50;99.90
19898;DHT22;10111;50.814;4.572;2023-08-07T15:02:09;21.40;99.90
19898;DHT22;10111;50.814;4.572;2023-08-07T15:04:35;21.50;99.90
19898;DHT22;10111;50.814;4.572;2023-08-07T15:07:01;21.40;99.90
19898;DHT22;10111;50.814;4.572;2023-08-07T15:09:26;21.50;99.90
19898;DHT22;10111;50.814;4.572;2023-08-07T15:11:52;21.60;99.90
19898;DHT22;10111;50.814;4.572;2023-08-07T15:14:17;21.70;99.90
19898;DHT22;10111;50.814;4.572;2023-08-07T15:16:43;22.00;99.90
19898;DHT22;10111;50.814;4.572;2023-08-07T15:19:09;22.10;99.90
19898;DHT22;10111;50.814;4.572;2023-08-07T15:21:34;22.20;99.90
19898;DHT22;10111;50.814;4.572;2023-08-07T15:24:00;22.20;99.90
19898;DHT22;10111;50.814;4.572;2023-08-07T15:26:26;22.20;99.90
19898;DHT22;10111;50.814;4.572;2023-08-07T15:28:51;22.40;99.90
19898;DHT22;10111;50.814;4.572;2023-08-07T15:31:17;22.50;99.90
19898;DHT22;10111;50.814;4.572;2023-08-07T15:33:42;22.60;99.90
19898;DHT22;10111;50.814;4.572;2023-08-07T15:36:13;22.50;99.90
19898;DHT22;10111;50.814;4.572;2023-08-07T15:38:38;22.60;99.90
19898;DHT22;10111;50.814;4.572;2023-08-07T15:41:04;22.60;99.90